Heino, Netherlands
Current Conditions -  °F | °C
As of 9:55 AM on Saturday 29 Nov 2014 (Local Time) from EHDL Reporting Station
Haze Haze  
Wind Chill: 29°   Ceiling: Unl
Heat Index: 36°   Visibility: 3mi
Dew Point: 32°   Wind: 8mph
Humidity: 87%   Direction: 90°E
Pressure: 29.97"   Gusts: NA
Location:  52.44°N, 6.23°E
Report Text: EHDL 290855Z AUTO 09007KT 5000 BR NCD 02/00 Q1015 WHT
Loading
Personal Weather Stations






























Interactive Weather Map New forecast layout! Learn more

10-Day Weather Forecast

Advertisements
Track Severe Weather on mobile